Time;durP1;ratioP1;P1;durP2;ratioP2;P2;SDS_P1;SDS_P2;PMS_P1;PMS_P2;Temp;Humidity;BMP_temperature;BMP_pressure;BME280_temperature;BME280_humidity;BME280_pressure;Samples;Min_cycle;Max_cycle;Signal;HPM_P1;HPM_P2
2022/01/30 00:01:15;;;;;;;4.90;2.70;;;;;;;-2.62;78.22;97635.16;104928;1271;61137;-24
2022/01/30 00:03:44;;;;;;;4.00;2.90;;;;;;;-2.65;78.30;97621.83;104689;1271;61975;-23
2022/01/30 00:06:12;;;;;;;5.30;3.10;;;;;;;-2.88;79.00;97612.77;104883;1271;74484;-23
2022/01/30 00:08:40;;;;;;;3.70;2.80;;;;;;;-2.89;80.47;97611.66;104794;1272;76010;-23
2022/01/30 00:11:16;;;;;;;6.50;4.30;;;;;;;-2.60;79.70;97599.52;104744;1273;74149;-23
2022/01/30 00:13:45;;;;;;;7.80;3.60;;;;;;;-2.87;80.97;97597.47;104917;1271;61074;-23
2022/01/30 00:16:36;;;;;;;8.30;4.10;;;;;;;-3.01;80.99;97587.79;104729;1273;63352;-24
2022/01/30 00:19:31;;;;;;;5.40;3.30;;;;;;;-3.10;81.77;97587.71;104687;1271;73666;-24
2022/01/30 00:22:16;;;;;;;3.80;2.20;;;;;;;-2.75;80.59;97575.14;104790;1273;76036;-24
2022/01/30 00:24:52;;;;;;;6.10;4.00;;;;;;;-2.66;80.47;97567.34;104882;1271;74744;-24
2022/01/30 00:27:28;;;;;;;7.30;2.50;;;;;;;-2.87;81.57;97547.70;104900;1271;60952;-24
2022/01/30 00:29:57;;;;;;;6.90;3.60;;;;;;;-3.00;82.55;97543.09;104921;1271;62093;-24
2022/01/30 00:32:25;;;;;;;7.50;3.40;;;;;;;-2.73;82.28;97532.73;104960;1271;75954;-24
2022/01/30 00:35:15;;;;;;;4.20;2.30;;;;;;;-2.71;81.70;97519.35;105170;1271;74986;-24
2022/01/30 00:37:48;;;;;;;6.40;4.10;;;;;;;-2.77;82.32;97505.91;105176;1271;73416;-24
2022/01/30 00:40:34;;;;;;;4.70;3.70;;;;;;;-2.94;83.34;97493.70;105138;1271;61884;-24
2022/01/30 00:43:04;;;;;;;4.80;3.10;;;;;;;-2.49;82.91;97482.86;105169;1271;61852;-23
2022/01/30 00:45:33;;;;;;;6.50;2.80;;;;;;;-2.58;83.39;97478.95;105121;1271;74161;-24
2022/01/30 00:48:04;;;;;;;5.80;3.80;;;;;;;-2.67;83.91;97464.61;105159;1270;76747;-25
2022/01/30 00:50:33;;;;;;;6.70;3.40;;;;;;;-2.79;84.70;97452.52;104904;1271;74509;-24
2022/01/30 00:53:01;;;;;;;6.70;3.50;;;;;;;-2.36;83.71;97453.31;104827;1271;61051;-24
2022/01/30 00:55:30;;;;;;;5.20;2.90;;;;;;;-2.43;83.03;97440.10;104926;1271;62101;-24
2022/01/30 00:57:59;;;;;;;6.90;3.90;;;;;;;-2.35;83.11;97430.98;104950;1270;74583;-24
2022/01/30 01:00:28;;;;;;;4.50;3.20;;;;;;;-2.42;83.31;97437.46;104830;1271;74684;-24
2022/01/30 01:02:56;;;;;;;6.70;3.90;;;;;;;-2.10;82.63;97427.56;104839;1271;74147;-24
2022/01/30 01:05:25;;;;;;;5.40;3.60;;;;;;;-2.10;82.49;97417.89;104933;1271;61754;-24
2022/01/30 01:07:56;;;;;;;6.30;3.50;;;;;;;-2.03;81.86;97418.65;105143;1271;61255;-24
2022/01/30 01:23:53;;;;;;;3.60;2.30;;;;;;;-1.80;81.72;97357.00;104873;1271;75474;-24
2022/01/30 01:26:22;;;;;;;3.30;2.50;;;;;;;-1.70;80.97;97362.55;104967;1271;75938;-24
2022/01/30 01:28:52;;;;;;;6.30;3.60;;;;;;;-2.09;82.45;97340.29;105105;1271;74628;-23
2022/01/30 01:31:20;;;;;;;5.00;3.20;;;;;;;-2.39;84.24;97334.84;105138;1271;63086;-24
2022/01/30 01:36:19;;;;;;;5.30;3.00;;;;;;;-1.82;82.27;97324.42;105113;1271;75642;-24
2022/01/30 01:38:48;;;;;;;8.00;3.40;;;;;;;-2.01;82.68;97310.91;105047;1271;76046;-23
2022/01/30 01:41:19;;;;;;;1.90;1.40;;;;;;;-2.22;83.84;97309.39;104858;1271;73452;-24
2022/01/30 01:43:49;;;;;;;6.40;3.10;;;;;;;-1.79;82.43;97306.40;104771;1271;61316;-24
2022/01/30 01:46:25;;;;;;;2.80;2.20;;;;;;;-1.94;82.61;97287.88;104782;1271;60994;-24
2022/01/30 01:48:54;;;;;;;4.10;2.80;;;;;;;-1.78;81.99;97289.48;104653;1272;74399;-24
2022/01/30 01:51:30;;;;;;;8.50;3.40;;;;;;;-1.90;82.06;97290.05;104917;1271;75043;-24
2022/01/30 01:53:59;;;;;;;3.40;1.40;;;;;;;-1.81;82.20;97275.73;105051;1271;73842;-24
2022/01/30 01:56:28;;;;;;;5.20;3.40;;;;;;;-1.36;80.79;97276.46;105138;1271;61239;-25
2022/01/30 01:59:13;;;;;;;3.20;2.30;;;;;;;-1.60;81.05;97250.33;104865;1274;61040;-23
2022/01/30 02:02:10;;;;;;;3.10;2.10;;;;;;;-1.68;81.54;97241.11;105073;1271;73617;-22
2022/01/30 02:04:41;;;;;;;4.40;2.60;;;;;;;-1.47;81.52;97233.02;104930;1271;76098;-23
2022/01/30 02:07:40;;;;;;;4.00;2.50;;;;;;;-1.51;81.54;97226.28;104890;1271;72964;-22
2022/01/30 02:10:04;;;;;;;7.10;1.90;;;;;;;-1.42;81.48;97213.15;104848;1271;61202;-23
2022/01/30 02:12:49;;;;;;;3.10;1.80;;;;;;;-1.47;81.39;97213.31;104762;1271;61195;-23
2022/01/30 02:26:11;;;;;;;3.30;2.10;;;;;;;-1.37;81.68;97165.67;105126;1271;61143;-23
2022/01/30 02:28:40;;;;;;;3.30;2.00;;;;;;;-0.91;80.42;97171.99;105122;1271;74609;-23
2022/01/30 02:31:14;;;;;;;2.70;1.50;;;;;;;-0.87;79.95;97163.23;105171;1271;74363;-23
2022/01/30 02:33:43;;;;;;;5.60;3.00;;;;;;;-1.08;80.23;97139.14;105091;1271;74682;-23
2022/01/30 02:36:11;;;;;;;4.40;2.50;;;;;;;-1.21;80.98;97127.72;105143;1271;61162;-23
2022/01/30 02:38:41;;;;;;;4.20;2.50;;;;;;;-1.03;81.03;97136.78;105043;1271;61959;-23
2022/01/30 02:41:10;;;;;;;2.80;2.00;;;;;;;-0.66;79.66;97133.39;105046;1271;75618;-23
2022/01/30 02:43:57;;;;;;;3.30;1.80;;;;;;;-0.83;80.02;97106.38;105133;1271;76013;-23
2022/01/30 02:46:32;;;;;;;7.30;2.20;;;;;;;-0.95;80.73;97112.23;105147;1271;72928;-23
2022/01/30 02:49:13;;;;;;;3.20;2.10;;;;;;;-1.06;81.93;97112.14;105049;1271;62944;-24
2022/01/30 02:51:48;;;;;;;4.30;2.60;;;;;;;-0.70;81.08;97094.92;104824;1271;61129;-22
2022/01/30 02:54:16;;;;;;;4.30;2.60;;;;;;;-0.62;80.46;97074.15;104819;1271;75719;-22
2022/01/30 02:56:46;;;;;;;2.70;1.60;;;;;;;-0.81;81.19;97080.30;105097;1271;75177;-22
2022/01/30 02:59:17;;;;;;;2.90;2.10;;;;;;;-0.98;82.32;97072.60;104964;1271;73413;-22
2022/01/30 03:01:45;;;;;;;3.10;1.60;;;;;;;-0.76;82.14;97059.04;104687;1271;61009;-22
2022/01/30 03:04:14;;;;;;;4.00;2.40;;;;;;;-0.68;81.44;97059.73;104887;1271;61033;-23
2022/01/30 03:06:44;;;;;;;1.30;1.00;;;;;;;-0.77;81.53;97059.96;104872;1271;74695;-23
2022/01/30 03:09:27;;;;;;;3.30;2.80;;;;;;;-0.95;82.34;97042.75;104792;1271;76292;-23
2022/01/30 03:11:56;;;;;;;2.20;1.90;;;;;;;-0.69;82.13;97035.61;104660;1272;74120;-23
2022/01/30 03:14:24;;;;;;;5.20;1.70;;;;;;;-0.42;80.70;97027.29;104847;1271;61146;-23
2022/01/30 03:16:54;;;;;;;7.20;2.70;;;;;;;-0.51;80.66;97027.04;105096;1271;61058;-23
2022/01/30 03:19:23;;;;;;;2.20;1.50;;;;;;;-0.89;81.92;97027.54;104969;1271;75498;-22
2022/01/30 03:21:51;;;;;;;3.30;2.00;;;;;;;-0.98;83.01;97016.75;105017;1271;75954;-22
2022/01/30 03:24:23;;;;;;;1.90;1.10;;;;;;;-0.48;81.34;97006.40;104837;1271;74287;-23
2022/01/30 03:26:55;;;;;;;2.10;1.40;;;;;;;-0.42;80.84;97015.20;104861;1271;61038;-23
2022/01/30 03:29:32;;;;;;;2.70;1.80;;;;;;;-0.72;81.84;97002.19;105067;1271;61951;-23
2022/01/30 03:32:01;;;;;;;1.10;1.00;;;;;;;-0.75;82.53;96996.79;105110;1271;75782;-22
2022/01/30 03:34:32;;;;;;;1.90;1.30;;;;;;;-0.40;81.40;97005.96;105152;1271;76039;-22
2022/01/30 03:37:00;;;;;;;0.90;0.80;;;;;;;-0.44;81.35;96988.00;105135;1271;74170;-22
2022/01/30 03:39:30;;;;;;;2.50;2.00;;;;;;;-0.47;81.55;96977.14;105095;1271;61041;-22
2022/01/30 03:41:59;;;;;;;3.10;2.20;;;;;;;-0.50;81.74;96975.66;104934;1271;61029;-22
2022/01/30 03:44:28;;;;;;;3.00;1.30;;;;;;;-0.39;82.00;96965.67;105155;1271;75541;-23
2022/01/30 03:46:56;;;;;;;3.00;1.50;;;;;;;-0.12;81.25;96979.70;105165;1271;75944;-23
2022/01/30 03:49:26;;;;;;;3.70;1.50;;;;;;;-0.22;80.93;96962.95;105108;1271;74309;-23
2022/01/30 03:51:56;;;;;;;1.30;0.60;;;;;;;-0.50;82.34;96969.51;105170;1271;61137;-23
2022/01/30 03:54:28;;;;;;;2.20;1.50;;;;;;;-0.40;82.63;96962.85;105142;1271;61618;-22
2022/01/30 03:56:56;;;;;;;2.80;1.50;;;;;;;0.01;81.27;96957.26;105126;1271;74566;-22
2022/01/30 03:59:27;;;;;;;1.40;1.00;;;;;;;0.06;80.52;96946.98;105151;1271;76029;-22
2022/01/30 04:01:56;;;;;;;3.80;1.70;;;;;;;-0.08;81.28;96953.45;105103;1271;74401;-23
2022/01/30 04:04:26;;;;;;;1.10;0.90;;;;;;;-0.27;82.27;96935.21;105142;1271;61207;-23
2022/01/30 04:06:56;;;;;;;1.60;1.10;;;;;;;-0.02;82.58;96930.33;105129;1271;61016;-22
2022/01/30 04:09:44;;;;;;;2.90;0.60;;;;;;;0.16;81.76;96938.80;105057;1271;74431;-22
2022/01/30 04:12:26;;;;;;;1.80;0.90;;;;;;;0.03;82.05;96937.86;105138;1271;75974;-22
2022/01/30 04:15:13;;;;;;;1.60;1.10;;;;;;;-0.16;82.99;96925.40;105092;1271;73484;-22
2022/01/30 04:17:54;;;;;;;1.80;1.10;;;;;;;0.16;82.63;96927.15;105099;1271;61022;-22
2022/01/30 04:20:38;;;;;;;2.00;0.90;;;;;;;0.16;82.35;96920.02;104898;1271;62095;-22
2022/01/30 04:23:12;;;;;;;1.60;1.30;;;;;;;0.13;81.96;96907.93;105039;1271;75386;-22
2022/01/30 04:26:19;;;;;;;1.80;1.00;;;;;;;0.05;82.12;96908.48;104595;1277;75113;-21
2022/01/30 04:29:10;;;;;;;0.80;0.80;;;;;;;0.46;81.17;96910.34;104554;1277;74403;-22
2022/01/30 04:32:03;;;;;;;0.40;0.40;;;;;;;0.58;80.38;96917.77;104963;1271;61036;-22
2022/01/30 04:34:56;;;;;;;0.80;0.80;;;;;;;0.34;81.11;96909.49;104801;1271;61033;-22
2022/01/30 05:00:06;;;;;;;0.80;0.70;;;;;;;0.52;81.84;96877.59;104199;1280;74244;-22
2022/01/30 05:06:31;;;;;;;1.20;0.70;;;;;;;0.90;81.07;96861.06;104350;1280;61137;-22
2022/01/30 05:09:13;;;;;;;1.10;0.60;;;;;;;0.85;81.21;96855.46;104338;1280;73978;-22
2022/01/30 05:17:54;;;;;;;1.40;0.90;;;;;;;0.52;82.91;96841.77;102383;1299;616263;-23
2022/01/30 05:20:41;;;;;;;3.40;1.00;;;;;;;1.05;80.84;96840.77;104369;1284;61138;-22
2022/01/30 05:23:27;;;;;;;1.40;1.00;;;;;;;1.18;80.12;96831.09;104416;1284;61051;-23
2022/01/30 05:26:29;;;;;;;0.70;0.60;;;;;;;0.99;80.54;96825.70;103595;1290;73386;-22
2022/01/30 05:29:26;;;;;;;0.40;0.40;;;;;;;0.83;81.66;96836.54;103690;1284;74079;-23
2022/01/30 05:32:14;;;;;;;0.90;0.60;;;;;;;1.22;80.74;96820.38;104233;1281;73479;-23
2022/01/30 05:34:56;;;;;;;0.60;0.50;;;;;;;1.52;79.44;96826.89;104356;1282;61150;-23
2022/01/30 05:38:03;;;;;;;0.80;0.60;;;;;;;1.29;79.82;96836.34;103324;1290;61169;-24
2022/01/30 05:40:49;;;;;;;1.30;0.70;;;;;;;1.01;80.92;96822.48;103270;1290;74162;-24
2022/01/30 05:43:17;;;;;;;0.70;0.60;;;;;;;0.96;81.89;96833.92;103760;1284;75252;-22
2022/01/30 05:46:17;;;;;;;1.00;0.70;;;;;;;1.41;80.33;96826.91;104053;1281;72928;-22
2022/01/30 05:48:45;;;;;;;0.70;0.70;;;;;;;1.63;79.26;96815.18;104277;1281;61101;-22
2022/01/30 05:51:37;;;;;;;0.80;0.80;;;;;;;1.42;79.83;96828.21;104470;1284;61035;-22
2022/01/30 05:54:16;;;;;;;0.80;0.70;;;;;;;1.22;80.50;96818.41;104380;1284;74623;-22
2022/01/30 05:56:43;;;;;;;0.80;0.60;;;;;;;1.12;81.37;96821.16;104355;1284;75871;-22
2022/01/30 05:59:16;;;;;;;;;;;;;;;1.52;80.29;96830.48;104518;1281;74424;-22
2022/01/30 06:02:09;;;;;;;1.60;0.80;;;;;;;1.55;79.91;96822.68;104272;1281;61166;-22
2022/01/30 06:04:36;;;;;;;0.90;0.70;;;;;;;1.50;79.97;96813.38;104417;1284;62769;-22
2022/01/30 06:07:06;;;;;;;0.70;0.60;;;;;;;1.38;80.48;96821.67;104425;1281;73697;-22
2022/01/30 06:09:33;;;;;;;0.40;0.40;;;;;;;1.35;80.68;96824.82;104451;1284;76451;-23
2022/01/30 06:12:00;;;;;;;0.80;0.40;;;;;;;1.73;79.69;96830.52;104501;1281;72274;-22
2022/01/30 06:14:31;;;;;;;0.80;0.70;;;;;;;1.73;79.46;96832.75;104436;1281;61070;-24
2022/01/30 06:17:06;;;;;;;1.50;0.80;;;;;;;1.65;79.67;96842.77;104379;1280;62002;-24
2022/01/30 06:19:52;;;;;;;0.50;0.50;;;;;;;1.41;80.72;96823.27;104236;1280;73834;-23
2022/01/30 06:22:38;;;;;;;0.80;0.60;;;;;;;1.32;81.10;96825.52;104645;1281;75839;-24
2022/01/30 06:25:30;;;;;;;0.50;0.40;;;;;;;1.75;79.68;96830.17;104512;1281;74363;-24
2022/01/30 06:28:16;;;;;;;1.00;0.80;;;;;;;1.83;78.86;96822.98;104412;1281;61960;-22
2022/01/30 06:31:02;;;;;;;1.10;0.70;;;;;;;1.66;79.32;96828.48;104592;1280;61083;-22
2022/01/30 06:33:43;;;;;;;0.60;0.60;;;;;;;1.41;80.35;96819.54;104306;1281;74561;-24
2022/01/30 06:36:29;;;;;;;1.10;0.70;;;;;;;1.43;80.38;96824.70;104128;1280;75056;-24
2022/01/30 06:39:06;;;;;;;1.10;0.90;;;;;;;1.81;78.87;96818.42;104464;1281;73661;-22
2022/01/30 06:41:45;;;;;;;1.60;1.00;;;;;;;1.79;78.79;96819.42;104256;1280;61225;-24
2022/01/30 06:44:51;;;;;;;1.50;0.70;;;;;;;1.55;79.41;96818.45;103941;1286;61280;-22
2022/01/30 06:47:44;;;;;;;1.80;0.70;;;;;;;1.38;79.99;96817.90;103674;1286;73703;-22
2022/01/30 06:50:32;;;;;;;0.70;0.50;;;;;;;1.47;80.14;96818.52;103930;1280;75112;-23
2022/01/30 06:53:17;;;;;;;1.70;0.90;;;;;;;1.92;78.08;96819.07;104247;1280;74519;-24
2022/01/30 06:56:11;;;;;;;1.20;0.80;;;;;;;1.98;77.83;96808.66;104078;1281;61579;-22
2022/01/30 06:58:56;;;;;;;0.70;0.50;;;;;;;1.88;78.37;96811.18;104250;1280;61153;-24
2022/01/30 07:01:42;;;;;;;3.10;1.30;;;;;;;1.69;79.24;96799.21;104235;1280;74786;-25
2022/01/30 07:04:29;;;;;;;1.50;0.70;;;;;;;1.83;79.04;96806.80;104012;1281;75040;-23
2022/01/30 07:07:10;;;;;;;0.90;0.70;;;;;;;2.28;77.19;96809.84;104171;1280;73399;-23
2022/01/30 07:09:37;;;;;;;0.80;0.70;;;;;;;2.38;76.51;96800.91;104914;1274;61080;-24
2022/01/30 07:12:05;;;;;;;1.00;0.60;;;;;;;2.30;76.43;96807.04;105109;1269;61048;-22
2022/01/30 07:14:33;;;;;;;2.40;0.70;;;;;;;2.18;77.10;96801.51;105099;1273;73835;-23
2022/01/30 07:17:00;;;;;;;0.50;0.40;;;;;;;2.01;77.72;96798.11;105085;1274;75959;-23
2022/01/30 07:19:27;;;;;;;1.30;0.70;;;;;;;2.04;77.53;96811.55;105167;1271;73636;-22
2022/01/30 07:21:54;;;;;;;1.70;0.60;;;;;;;2.05;77.53;96802.71;104877;1274;61060;-23
2022/01/30 07:24:21;;;;;;;1.90;0.60;;;;;;;2.05;77.64;96801.23;104973;1274;61029;-23
2022/01/30 07:26:48;;;;;;;0.90;0.60;;;;;;;2.51;76.27;96810.46;104720;1274;73890;-23
2022/01/30 07:29:16;;;;;;;1.00;0.50;;;;;;;2.94;74.14;96802.02;104791;1273;76180;-23
2022/01/30 07:31:43;;;;;;;1.00;0.40;;;;;;;3.12;73.48;96802.55;104790;1274;73269;-24
2022/01/30 07:34:10;;;;;;;4.10;1.20;;;;;;;3.11;73.28;96792.52;104827;1274;61174;-23
2022/01/30 07:36:37;;;;;;;0.50;0.50;;;;;;;3.01;73.64;96800.02;104794;1274;61052;-23
2022/01/30 07:39:08;;;;;;;0.70;0.50;;;;;;;2.98;73.79;96803.77;104812;1271;73875;-23
2022/01/30 07:41:35;;;;;;;1.20;0.40;;;;;;;2.71;74.58;96795.93;104643;1274;75217;-25
2022/01/30 07:44:03;;;;;;;2.00;0.60;;;;;;;2.67;74.82;96797.77;104653;1274;74511;-23
2022/01/30 07:46:31;;;;;;;1.60;0.70;;;;;;;2.61;74.97;96800.02;104645;1274;61049;-23
2022/01/30 07:48:59;;;;;;;1.30;0.80;;;;;;;2.64;75.13;96811.61;104824;1274;61139;-23
2022/01/30 07:51:26;;;;;;;2.70;1.00;;;;;;;2.70;75.20;96805.45;104741;1271;74681;-23
2022/01/30 07:53:53;;;;;;;1.60;0.80;;;;;;;2.71;74.54;96794.52;104770;1272;76337;-23
2022/01/30 07:56:20;;;;;;;2.20;0.80;;;;;;;2.66;74.96;96810.55;104745;1274;73313;-23
2022/01/30 07:58:47;;;;;;;3.60;0.90;;;;;;;2.84;73.65;96805.98;104863;1274;61029;-23
2022/01/30 08:01:14;;;;;;;2.00;0.90;;;;;;;3.30;71.99;96804.05;104801;1274;61169;-23
2022/01/30 08:03:41;;;;;;;0.90;0.50;;;;;;;3.30;71.50;96806.98;104800;1274;74559;-23
2022/01/30 08:06:08;;;;;;;1.80;0.80;;;;;;;3.17;71.66;96796.09;104640;1274;75986;-23
2022/01/30 08:08:35;;;;;;;3.10;1.00;;;;;;;3.01;72.08;96791.86;104835;1271;73347;-23
2022/01/30 08:11:03;;;;;;;1.40;0.50;;;;;;;2.78;72.73;96792.44;104920;1271;61087;-23
2022/01/30 08:13:30;;;;;;;3.50;1.00;;;;;;;2.67;72.90;96784.96;105029;1271;60967;-23
2022/01/30 08:15:58;;;;;;;1.70;0.70;;;;;;;2.55;73.32;96790.08;105175;1271;73883;-23
2022/01/30 08:18:26;;;;;;;1.40;0.60;;;;;;;2.80;72.82;96792.58;105093;1274;74750;-23
2022/01/30 08:20:54;;;;;;;0.70;0.50;;;;;;;3.24;71.08;96797.25;105011;1271;74515;-23
2022/01/30 08:23:23;;;;;;;1.50;0.70;;;;;;;3.28;70.79;96790.23;105015;1274;61262;-23
2022/01/30 08:25:50;;;;;;;2.20;0.70;;;;;;;3.19;71.32;96797.33;104810;1271;61708;-23
2022/01/30 08:28:17;;;;;;;4.70;1.20;;;;;;;3.20;71.30;96796.23;104869;1271;74678;-23
2022/01/30 08:30:45;;;;;;;2.90;1.10;;;;;;;3.08;71.97;96804.12;104902;1271;75993;-23
2022/01/30 08:33:16;;;;;;;4.30;1.10;;;;;;;2.89;72.53;96789.24;104906;1271;74484;-23
2022/01/30 08:35:44;;;;;;;1.00;0.40;;;;;;;2.68;73.63;96787.59;104780;1271;61103;-23
2022/01/30 08:38:15;;;;;;;1.30;0.80;;;;;;;2.98;72.80;96787.61;104853;1271;61183;-24
2022/01/30 08:40:42;;;;;;;2.50;0.80;;;;;;;3.37;70.81;96787.16;104813;1271;74635;-24
2022/01/30 08:43:10;;;;;;;0.90;0.60;;;;;;;3.30;70.81;96782.85;104904;1271;75717;-25
2022/01/30 08:45:37;;;;;;;4.00;1.10;;;;;;;3.21;71.09;96786.01;104895;1271;74407;-26
2022/01/30 08:48:05;;;;;;;3.40;1.30;;;;;;;3.10;71.42;96787.24;104764;1274;61035;-25
2022/01/30 08:50:33;;;;;;;2.80;0.90;;;;;;;2.85;71.78;96782.41;104854;1274;61021;-34
2022/01/30 08:53:00;;;;;;;3.10;1.20;;;;;;;2.63;72.70;96781.89;104970;1271;74939;-26
2022/01/30 08:55:29;;;;;;;3.30;1.20;;;;;;;2.56;73.03;96762.95;105016;1271;75016;-26
2022/01/30 08:57:57;;;;;;;1.20;0.60;;;;;;;2.71;72.67;96770.02;104850;1271;74246;-26
2022/01/30 09:00:25;;;;;;;3.10;0.60;;;;;;;3.08;71.18;96774.95;104893;1274;61728;-26
2022/01/30 09:02:54;;;;;;;1.10;0.60;;;;;;;3.20;70.55;96781.67;105158;1274;61117;-25
2022/01/30 09:05:24;;;;;;;4.80;1.50;;;;;;;3.09;70.87;96785.98;105037;1271;73585;-25
2022/01/30 09:07:51;;;;;;;3.30;1.00;;;;;;;2.90;71.95;96783.87;104776;1271;75125;-25
2022/01/30 09:10:18;;;;;;;5.10;1.00;;;;;;;2.65;72.86;96775.02;105051;1271;74248;-25
2022/01/30 09:12:45;;;;;;;3.00;0.80;;;;;;;2.41;74.01;96771.39;105131;1271;61160;-25
2022/01/30 09:15:21;;;;;;;2.10;1.40;;;;;;;2.37;74.18;96770.35;104982;1271;61038;-24
2022/01/30 09:17:51;;;;;;;5.50;1.10;;;;;;;2.75;72.61;96759.64;105120;1271;73787;-26
2022/01/30 09:20:20;;;;;;;1.20;0.50;;;;;;;2.92;71.45;96769.34;104741;1272;75855;-24
2022/01/30 09:22:49;;;;;;;1.60;0.70;;;;;;;3.00;70.93;96766.75;104952;1271;74430;-24
2022/01/30 09:25:17;;;;;;;4.50;1.10;;;;;;;2.92;71.30;96770.34;104864;1271;61038;-24
2022/01/30 09:27:45;;;;;;;1.70;0.80;;;;;;;2.76;71.89;96771.98;104882;1271;61113;-25
2022/01/30 09:30:12;;;;;;;6.60;0.70;;;;;;;2.61;72.33;96758.20;104660;1274;75089;-24
2022/01/30 09:32:39;;;;;;;4.00;1.50;;;;;;;2.52;72.69;96763.41;104792;1271;76009;-24
2022/01/30 09:35:07;;;;;;;3.00;1.00;;;;;;;2.70;72.60;96765.88;104981;1271;74062;-26
2022/01/30 09:37:34;;;;;;;1.10;0.50;;;;;;;3.04;71.88;96760.04;105025;1271;61594;-24
2022/01/30 09:40:03;;;;;;;1.10;0.70;;;;;;;3.11;71.95;96765.46;104663;1271;61042;-25
2022/01/30 09:42:30;;;;;;;2.60;0.90;;;;;;;2.98;72.35;96761.74;104867;1271;74470;-24
2022/01/30 09:45:00;;;;;;;1.00;0.60;;;;;;;2.79;72.57;96752.42;104707;1274;75968;-24
2022/01/30 09:47:28;;;;;;;3.70;0.80;;;;;;;2.64;73.13;96758.62;104760;1274;74364;-25
2022/01/30 09:49:55;;;;;;;3.20;1.20;;;;;;;2.60;72.81;96743.96;104769;1271;61465;-24
2022/01/30 09:52:23;;;;;;;2.80;0.80;;;;;;;2.50;72.89;96742.35;104592;1273;61225;-24
2022/01/30 09:54:51;;;;;;;2.80;0.70;;;;;;;2.75;72.32;96743.30;104837;1271;75559;-25
2022/01/30 09:57:18;;;;;;;2.50;1.00;;;;;;;3.34;70.28;96742.14;104878;1268;75980;-24
2022/01/30 09:59:46;;;;;;;4.00;1.10;;;;;;;3.58;68.61;96730.94;104886;1271;74478;-24
2022/01/30 10:02:13;;;;;;;3.50;0.70;;;;;;;3.80;67.87;96733.34;104883;1271;61153;-24
2022/01/30 10:04:41;;;;;;;5.30;1.10;;;;;;;3.84;67.55;96720.73;104817;1271;61229;-26
2022/01/30 10:07:14;;;;;;;1.80;0.90;;;;;;;3.68;67.51;96721.14;104959;1271;73407;-25
2022/01/30 10:09:48;;;;;;;6.70;1.00;;;;;;;3.50;67.96;96712.14;104873;1271;74949;-25
2022/01/30 10:12:20;;;;;;;4.40;0.80;;;;;;;3.69;67.65;96726.89;104701;1271;74432;-25
2022/01/30 10:14:53;;;;;;;4.50;0.80;;;;;;;3.93;66.53;96721.67;104455;1274;61732;-26
2022/01/30 10:17:37;;;;;;;2.50;0.70;;;;;;;3.88;66.51;96709.58;104665;1274;61056;-26
2022/01/30 10:20:25;;;;;;;2.60;0.80;;;;;;;3.59;67.40;96703.64;104766;1271;74693;-27
2022/01/30 10:22:59;;;;;;;1.50;0.80;;;;;;;3.26;68.11;96698.62;104836;1271;75869;-26
2022/01/30 10:25:32;;;;;;;2.30;1.00;;;;;;;3.11;69.52;96717.30;104727;1274;74584;-25
2022/01/30 10:28:10;;;;;;;2.80;0.80;;;;;;;2.54;74.27;96698.00;104826;1274;61156;-22
2022/01/30 10:30:42;;;;;;;2.40;0.80;;;;;;;2.28;77.13;96712.55;104758;1274;61205;-24
2022/01/30 10:33:17;;;;;;;4.60;1.50;;;;;;;2.44;77.67;96713.94;104884;1271;74276;-22
2022/01/30 10:35:57;;;;;;;1.60;0.70;;;;;;;2.43;77.89;96718.10;105074;1271;75104;-23
2022/01/30 10:38:26;;;;;;;1.20;0.70;;;;;;;2.21;78.80;96713.98;104895;1271;73452;-23
2022/01/30 10:41:10;;;;;;;0.90;0.40;;;;;;;2.18;79.91;96722.83;104729;1271;61081;-23
2022/01/30 10:43:52;;;;;;;2.20;0.60;;;;;;;2.40;79.36;96714.13;104819;1271;61119;-23
2022/01/30 10:46:28;;;;;;;2.60;0.60;;;;;;;2.54;78.93;96721.98;104628;1274;74474;-22
2022/01/30 10:49:00;;;;;;;0.70;0.30;;;;;;;2.56;78.13;96711.05;104775;1271;73308;-22
2022/01/30 10:51:28;;;;;;;1.30;0.50;;;;;;;2.89;76.25;96696.52;104987;1274;74353;-22
2022/01/30 10:53:56;;;;;;;2.70;1.00;;;;;;;3.16;75.32;96697.98;104768;1271;62259;-22
2022/01/30 10:56:27;;;;;;;2.20;0.70;;;;;;;3.23;74.58;96692.52;105118;1271;61973;-22
2022/01/30 10:59:16;;;;;;;2.00;0.80;;;;;;;3.34;74.17;96687.12;104744;1271;74455;-22
2022/01/30 11:01:45;;;;;;;8.20;1.20;;;;;;;3.64;73.27;96684.97;104828;1271;75248;-22
2022/01/30 11:04:21;;;;;;;1.80;0.90;;;;;;;3.82;71.69;96672.48;104852;1271;73465;-21
2022/01/30 11:06:48;;;;;;;4.50;1.10;;;;;;;3.90;71.56;96667.19;104985;1271;61030;-21
2022/01/30 11:09:19;;;;;;;4.20;1.00;;;;;;;4.04;70.43;96663.84;105189;1271;61004;-21
2022/01/30 11:11:54;;;;;;;1.70;0.90;;;;;;;4.09;69.31;96657.03;105125;1271;75470;-22
2022/01/30 11:14:24;;;;;;;2.60;0.80;;;;;;;4.17;68.32;96656.45;104901;1271;76354;-21
2022/01/30 11:17:03;;;;;;;1.10;0.90;;;;;;;4.17;67.36;96650.21;105008;1271;74422;-21
2022/01/30 11:19:33;;;;;;;1.80;0.60;;;;;;;4.23;66.32;96637.33;104852;1271;61331;-21
2022/01/30 11:22:05;;;;;;;2.20;1.00;;;;;;;4.25;66.10;96646.76;104749;1271;61041;-21
2022/01/30 11:25:05;;;;;;;2.00;0.80;;;;;;;4.28;65.15;96636.33;104808;1271;74126;-21
2022/01/30 11:27:32;;;;;;;2.10;1.00;;;;;;;4.23;64.72;96631.34;105115;1271;75149;-21
2022/01/30 11:30:00;;;;;;;3.40;1.40;;;;;;;4.04;64.35;96628.11;105127;1274;74360;-21
2022/01/30 11:32:28;;;;;;;2.30;0.70;;;;;;;3.91;64.63;96628.41;105172;1271;61005;-21
2022/01/30 11:34:57;;;;;;;1.40;0.70;;;;;;;3.74;64.79;96634.29;105114;1271;61109;-21
2022/01/30 11:37:26;;;;;;;2.90;0.80;;;;;;;3.64;64.98;96634.34;104932;1271;74740;-21
2022/01/30 11:40:16;;;;;;;1.10;0.60;;;;;;;3.49;65.65;96627.08;104814;1271;75089;-21
2022/01/30 11:42:49;;;;;;;1.90;0.70;;;;;;;3.33;65.70;96628.17;104887;1274;74330;-21
2022/01/30 11:45:16;;;;;;;3.20;0.90;;;;;;;3.18;65.68;96627.33;104784;1274;61076;-22
2022/01/30 11:48:03;;;;;;;2.80;1.00;;;;;;;3.09;65.53;96628.63;104812;1274;61220;-21
2022/01/30 11:50:32;;;;;;;5.20;0.90;;;;;;;3.00;64.57;96615.67;104643;1274;71718;-22
2022/01/30 11:53:14;;;;;;;1.60;0.60;;;;;;;3.03;63.29;96600.54;104625;1274;75004;-22
2022/01/30 11:55:48;;;;;;;5.70;0.90;;;;;;;3.24;62.10;96603.66;104762;1271;73372;-22
2022/01/30 11:58:33;;;;;;;0.80;0.40;;;;;;;3.53;61.85;96619.83;105095;1271;61197;-22
2022/01/30 12:01:26;;;;;;;3.90;0.90;;;;;;;3.73;60.41;96604.02;104977;1271;61180;-23
2022/01/30 12:03:59;;;;;;;5.70;1.20;;;;;;;3.63;59.60;96594.06;104840;1271;75740;-23
2022/01/30 12:06:29;;;;;;;3.90;0.70;;;;;;;3.45;60.10;96596.91;104688;1271;74947;-23
2022/01/30 12:09:17;;;;;;;4.50;0.80;;;;;;;3.56;59.36;96600.81;104747;1274;73492;-22
2022/01/30 12:11:47;;;;;;;6.80;1.20;;;;;;;3.79;58.57;96589.91;105057;1271;61147;-24
2022/01/30 12:14:20;;;;;;;3.70;1.10;;;;;;;3.91;57.98;96571.80;105123;1271;61129;-23
2022/01/30 12:17:07;;;;;;;3.90;1.10;;;;;;;3.78;57.97;96572.66;105123;1271;76938;-22
2022/01/30 12:19:39;;;;;;;2.80;0.90;;;;;;;3.77;58.17;96577.20;104907;1271;75745;-23
2022/01/30 12:22:17;;;;;;;3.30;0.60;;;;;;;3.80;57.76;96570.77;104841;1274;74382;-22
2022/01/30 12:24:47;;;;;;;0.70;0.60;;;;;;;3.68;58.42;96581.73;105088;1274;61131;-23
2022/01/30 12:27:14;;;;;;;7.20;1.00;;;;;;;3.67;58.63;96569.39;104861;1274;61091;-22
2022/01/30 12:29:45;;;;;;;4.70;0.60;;;;;;;3.68;58.22;96572.15;104876;1271;75383;-23
2022/01/30 12:32:21;;;;;;;2.60;0.70;;;;;;;3.58;58.57;96574.46;104637;1274;74785;-23
2022/01/30 12:35:08;;;;;;;6.00;1.00;;;;;;;3.40;58.97;96564.79;105044;1274;73381;-23
2022/01/30 12:37:37;;;;;;;1.70;0.60;;;;;;;3.35;59.46;96570.78;105057;1274;61145;-23
2022/01/30 12:40:10;;;;;;;0.90;0.50;;;;;;;3.24;59.93;96567.59;105114;1274;61794;-23
2022/01/30 12:42:37;;;;;;;2.50;0.70;;;;;;;3.16;60.45;96562.52;104873;1274;75544;-24
2022/01/30 12:45:08;;;;;;;2.00;0.50;;;;;;;3.09;60.68;96568.25;104849;1274;76083;-23
2022/01/30 12:47:49;;;;;;;1.80;0.40;;;;;;;3.09;61.32;96575.63;104628;1274;74501;-23
2022/01/30 12:50:16;;;;;;;4.00;0.90;;;;;;;3.07;61.09;96566.89;104920;1271;61009;-24
2022/01/30 12:52:49;;;;;;;0.40;0.40;;;;;;;3.06;61.55;96558.96;104674;1274;62194;-24
2022/01/30 12:55:17;;;;;;;1.90;0.70;;;;;;;3.07;61.32;96557.02;104752;1274;74632;-22
2022/01/30 12:57:49;;;;;;;1.70;0.60;;;;;;;3.05;62.01;96558.73;104748;1274;76245;-24
2022/01/30 13:00:17;;;;;;;3.90;0.70;;;;;;;3.01;62.56;96562.35;104440;1274;74350;-24
2022/01/30 13:02:53;;;;;;;2.50;0.80;;;;;;;2.93;63.42;96559.41;104849;1274;61171;-24